Time;durP1;ratioP1;P1;durP2;ratioP2;P2;SDS_P1;SDS_P2;PMS_P1;PMS_P2;Temp;Humidity;BMP_temperature;BMP_pressure;BME280_temperature;BME280_humidity;BME280_pressure;Samples;Min_cycle;Max_cycle;Signal;HPM_P1;HPM_P2
2023/12/31 00:00:49;;;;;;;12.75;3.97;;;;;;;4.67;84.64;100780.59;6297522;22;20015;-72
2023/12/31 00:03:15;;;;;;;17.88;4.07;;;;;;;4.65;84.75;100790.59;6296309;22;20015;-73
2023/12/31 00:05:42;;;;;;;11.88;4.40;;;;;;;4.67;84.89;100771.69;6297643;22;20023;-72
2023/12/31 00:08:11;;;;;;;17.67;4.35;;;;;;;4.71;84.87;100771.41;6296201;22;20050;-74
2023/12/31 00:10:39;;;;;;;13.27;4.00;;;;;;;4.71;84.90;100779.47;6298007;22;20008;-71
2023/12/31 00:13:06;;;;;;;10.63;3.80;;;;;;;4.73;84.71;100772.16;6296333;22;20031;-72
2023/12/31 00:15:33;;;;;;;16.55;4.03;;;;;;;4.72;84.88;100774.97;6298184;22;20023;-72
2023/12/31 00:17:59;;;;;;;17.73;4.60;;;;;;;4.80;84.52;100778.03;6298096;22;20012;-72
2023/12/31 00:20:27;;;;;;;14.65;4.15;;;;;;;4.79;84.60;100776.31;6272150;22;20014;-72
2023/12/31 00:22:54;;;;;;;10.30;3.65;;;;;;;4.75;84.42;100766.69;6298934;22;20028;-73
2023/12/31 00:25:20;;;;;;;16.00;4.18;;;;;;;4.78;84.75;100769.22;6296567;22;20016;-72
2023/12/31 00:27:47;;;;;;;16.65;5.40;;;;;;;4.74;84.76;100767.66;6294623;22;20022;-73
2023/12/31 00:30:13;;;;;;;14.70;3.90;;;;;;;4.73;84.76;100764.09;6297687;22;20022;-72
2023/12/31 00:32:40;;;;;;;10.20;3.20;;;;;;;4.77;84.44;100755.84;6298110;22;20027;-72
2023/12/31 00:35:07;;;;;;;11.75;3.50;;;;;;;4.75;84.98;100753.25;6295913;22;20049;-73
2023/12/31 00:37:33;;;;;;;19.65;4.45;;;;;;;4.75;84.81;100749.72;6296469;22;20050;-72
2023/12/31 00:40:00;;;;;;;15.23;3.28;;;;;;;4.75;84.94;100747.03;6298469;22;20027;-72
2023/12/31 00:42:27;;;;;;;15.95;3.50;;;;;;;4.75;84.79;100741.66;6297891;22;20023;-72
2023/12/31 00:44:53;;;;;;;22.98;4.03;;;;;;;4.81;84.66;100757.41;6297843;22;20027;-72
2023/12/31 00:47:21;;;;;;;12.82;3.67;;;;;;;4.82;84.28;100748.38;6298469;22;20007;-72
2023/12/31 00:49:48;;;;;;;11.77;3.30;;;;;;;4.81;84.66;100747.50;6297773;22;20071;-72
2023/12/31 00:52:14;;;;;;;18.48;3.67;;;;;;;4.77;84.56;100745.09;6297838;22;20024;-72
2023/12/31 00:54:41;;;;;;;14.60;3.35;;;;;;;4.69;84.81;100743.78;6297893;22;20015;-72
2023/12/31 00:57:08;;;;;;;15.27;3.88;;;;;;;4.71;85.03;100741.84;6296315;22;20054;-73
2023/12/31 00:59:34;;;;;;;18.10;3.83;;;;;;;4.58;85.27;100738.19;6296771;22;20046;-72
2023/12/31 01:02:01;;;;;;;9.93;3.17;;;;;;;4.53;85.37;100737.66;6298455;22;20023;-72
2023/12/31 01:04:28;;;;;;;17.08;3.72;;;;;;;4.49;85.97;100730.75;6298077;22;20020;-72
2023/12/31 01:06:54;;;;;;;20.63;4.30;;;;;;;4.46;86.28;100738.97;6295659;22;20037;-72
2023/12/31 01:09:21;;;;;;;20.13;4.18;;;;;;;4.47;86.34;100732.66;6295955;22;20027;-71
2023/12/31 01:11:47;;;;;;;12.40;3.70;;;;;;;4.36;86.52;100740.50;6295882;22;20055;-72
2023/12/31 01:14:14;;;;;;;12.15;3.38;;;;;;;4.29;86.95;100731.97;6270967;22;20039;-72
2023/12/31 01:16:41;;;;;;;14.32;3.38;;;;;;;4.27;87.01;100730.34;6238506;23;20018;-72
2023/12/31 01:19:08;;;;;;;10.60;3.50;;;;;;;4.25;87.31;100734.94;6264475;23;20051;-72
2023/12/31 01:21:35;;;;;;;11.40;4.13;;;;;;;4.22;87.52;100737.84;6265765;23;20008;-72
2023/12/31 01:24:03;;;;;;;13.13;4.15;;;;;;;4.25;87.26;100726.91;6266929;23;20027;-72
2023/12/31 01:26:29;;;;;;;15.77;4.30;;;;;;;4.22;87.27;100719.03;6267042;23;20020;-72
2023/12/31 01:28:56;;;;;;;17.90;4.32;;;;;;;4.24;87.47;100720.66;6267069;23;20088;-72
2023/12/31 01:31:24;;;;;;;19.92;4.95;;;;;;;4.19;87.39;100721.91;6266210;23;21137;-72
2023/12/31 01:33:50;;;;;;;14.98;4.40;;;;;;;4.21;87.61;100731.59;6266110;23;20024;-72
2023/12/31 01:36:17;;;;;;;21.77;4.97;;;;;;;4.18;87.43;100726.41;6264910;23;20643;-72
2023/12/31 01:38:45;;;;;;;12.60;3.95;;;;;;;4.15;87.50;100724.78;6266280;23;20012;-72
2023/12/31 01:41:12;;;;;;;15.65;4.55;;;;;;;4.13;87.51;100713.28;6239956;23;20084;-72
2023/12/31 01:43:39;;;;;;;10.57;3.83;;;;;;;4.19;87.49;100716.53;6265425;23;20028;-72
2023/12/31 01:46:08;;;;;;;16.10;3.95;;;;;;;4.11;87.48;100722.38;6264489;23;20076;-72
2023/12/31 01:48:35;;;;;;;14.27;4.80;;;;;;;4.06;87.35;100722.66;6265308;23;20072;-72
2023/12/31 01:51:03;;;;;;;14.43;3.90;;;;;;;4.05;87.48;100718.25;6266130;23;20028;-72
2023/12/31 01:53:31;;;;;;;17.67;4.40;;;;;;;4.02;87.74;100713.06;6264520;23;20056;-72
2023/12/31 01:55:58;;;;;;;22.42;5.05;;;;;;;4.00;87.97;100714.97;6264174;23;20059;-72
2023/12/31 01:58:25;;;;;;;13.43;3.75;;;;;;;4.03;87.72;100708.56;6264998;23;20008;-72
2023/12/31 02:00:52;;;;;;;13.13;3.92;;;;;;;3.97;87.73;100712.50;6266027;23;20069;-72
2023/12/31 02:03:19;;;;;;;14.35;3.70;;;;;;;3.96;88.26;100700.03;6265692;22;20012;-72
2023/12/31 02:09:33;;;;;;;18.33;4.78;;;;;;;3.88;88.17;100691.59;6265322;23;20039;-72
2023/12/31 02:12:00;;;;;;;17.13;4.07;;;;;;;3.79;88.60;100698.38;6264669;23;20031;-72
2023/12/31 02:14:27;;;;;;;10.20;4.15;;;;;;;3.80;88.37;100693.88;6265593;22;20010;-72
2023/12/31 02:16:53;;;;;;;17.38;4.32;;;;;;;3.76;88.32;100693.19;6266582;23;20028;-72
2023/12/31 02:19:21;;;;;;;14.43;3.97;;;;;;;3.73;88.45;100689.81;6266844;23;20044;-72
2023/12/31 02:21:47;;;;;;;19.80;4.55;;;;;;;3.76;88.04;100687.84;6266841;23;20023;-72
2023/12/31 02:24:15;;;;;;;18.55;4.57;;;;;;;3.74;88.12;100684.34;6265591;23;20028;-72
2023/12/31 02:26:41;;;;;;;11.88;3.95;;;;;;;3.70;88.62;100682.81;6265521;23;20036;-71
2023/12/31 02:29:08;;;;;;;21.65;4.70;;;;;;;3.66;88.44;100675.06;6264479;23;20028;-72
2023/12/31 02:31:35;;;;;;;17.98;3.58;;;;;;;3.72;88.43;100674.69;6266012;23;20056;-72
2023/12/31 02:34:02;;;;;;;9.43;3.42;;;;;;;3.66;88.24;100669.72;6265368;23;20027;-72
2023/12/31 02:36:29;;;;;;;15.85;3.90;;;;;;;3.60;88.58;100670.06;6265061;23;20063;-72
2023/12/31 02:38:56;;;;;;;15.73;3.88;;;;;;;3.63;88.50;100672.56;6266012;23;20043;-72
2023/12/31 02:41:22;;;;;;;19.20;3.85;;;;;;;3.60;88.66;100678.13;6265395;23;20008;-72
2023/12/31 02:43:49;;;;;;;14.23;4.22;;;;;;;3.62;88.55;100673.50;6265422;23;20032;-72
2023/12/31 02:46:15;;;;;;;12.38;3.45;;;;;;;3.65;88.67;100673.31;6264896;23;20038;-72
2023/12/31 02:48:42;;;;;;;12.60;4.20;;;;;;;3.61;88.39;100672.66;6265217;23;20008;-72
2023/12/31 02:51:10;;;;;;;8.18;3.30;;;;;;;3.57;88.69;100668.44;6265811;23;20028;-72
2023/12/31 02:53:36;;;;;;;11.07;4.40;;;;;;;3.52;88.84;100668.69;6265440;23;20024;-72
2023/12/31 02:56:03;;;;;;;22.15;4.53;;;;;;;3.47;89.20;100660.09;6264900;23;20028;-72
2023/12/31 02:58:30;;;;;;;15.52;4.43;;;;;;;3.43;89.11;100661.22;6263917;23;20020;-72
2023/12/31 03:00:56;;;;;;;9.50;3.65;;;;;;;3.45;89.36;100645.88;6265560;22;20016;-73
2023/12/31 03:03:24;;;;;;;14.75;4.03;;;;;;;3.38;89.50;100654.41;6265364;23;20056;-72
2023/12/31 03:05:51;;;;;;;13.18;3.83;;;;;;;3.38;89.40;100649.91;6265928;23;20019;-72
2023/12/31 03:08:17;;;;;;;15.18;4.78;;;;;;;3.41;89.20;100649.72;6264977;23;20020;-72
2023/12/31 03:10:44;;;;;;;15.98;4.90;;;;;;;3.38;89.60;100643.69;6265792;23;20064;-72
2023/12/31 03:13:11;;;;;;;21.25;4.15;;;;;;;3.38;89.57;100639.19;6264021;23;20024;-72
2023/12/31 03:15:39;;;;;;;11.27;4.20;;;;;;;3.41;89.45;100639.00;6264059;23;20025;-72
2023/12/31 03:18:06;;;;;;;11.02;3.50;;;;;;;3.38;89.58;100633.81;6265091;23;20028;-72
2023/12/31 03:20:32;;;;;;;11.63;3.95;;;;;;;3.36;89.52;100630.34;6264652;23;20043;-73
2023/12/31 03:22:59;;;;;;;12.55;3.88;;;;;;;3.36;89.35;100634.84;6264197;23;20075;-71
2023/12/31 03:25:26;;;;;;;14.13;4.47;;;;;;;3.24;90.09;100631.94;6264639;23;20035;-73
2023/12/31 03:27:52;;;;;;;13.20;3.92;;;;;;;3.19;90.37;100630.50;6263909;23;20039;-71
2023/12/31 03:30:19;;;;;;;18.27;3.80;;;;;;;3.18;89.95;100634.13;6265204;23;20024;-72
2023/12/31 03:32:46;;;;;;;15.27;4.05;;;;;;;3.15;90.63;100618.22;6266687;23;20020;-72
2023/12/31 03:35:12;;;;;;;15.85;4.20;;;;;;;3.13;90.47;100622.81;6238310;23;20025;-73
2023/12/31 03:37:43;;;;;;;16.27;4.47;;;;;;;3.09;90.67;100614.09;6263826;23;20020;-72
2023/12/31 03:40:10;;;;;;;14.32;3.90;;;;;;;3.07;90.86;100604.41;6264861;23;20028;-71
2023/12/31 03:42:37;;;;;;;14.27;4.10;;;;;;;3.06;91.02;100605.38;6264203;23;20035;-72
2023/12/31 03:45:04;;;;;;;15.00;4.38;;;;;;;3.06;90.97;100608.06;6263449;23;20028;-73
2023/12/31 03:47:31;;;;;;;22.73;5.30;;;;;;;3.09;90.95;100607.88;6263292;23;20020;-71
2023/12/31 03:49:58;;;;;;;17.27;4.45;;;;;;;3.07;91.23;100607.97;6265110;23;20029;-71
2023/12/31 03:52:25;;;;;;;12.68;4.38;;;;;;;3.03;91.14;100606.44;6264174;23;20038;-71
2023/12/31 03:54:51;;;;;;;15.15;4.70;;;;;;;3.02;91.34;100601.16;6266643;23;20012;-71
2023/12/31 03:57:18;;;;;;;24.40;4.55;;;;;;;2.99;91.25;100608.41;6266503;23;20024;-71
2023/12/31 03:59:45;;;;;;;15.98;4.57;;;;;;;2.98;91.60;100604.00;6265727;22;20012;-71
2023/12/31 04:02:11;;;;;;;21.13;4.57;;;;;;;2.97;91.60;100596.06;6265502;23;20135;-72
2023/12/31 04:04:38;;;;;;;14.73;5.05;;;;;;;2.94;91.52;100598.94;6265097;23;20004;-71
2023/12/31 04:07:05;;;;;;;15.25;4.00;;;;;;;2.92;91.91;100593.66;6265884;23;20078;-73
2023/12/31 04:09:31;;;;;;;18.40;4.35;;;;;;;2.93;91.70;100584.69;6265935;23;20378;-73
2023/12/31 04:11:58;;;;;;;20.17;4.43;;;;;;;2.92;91.44;100582.94;6264693;22;20028;-73
2023/12/31 04:14:25;;;;;;;16.90;3.67;;;;;;;2.90;91.83;100587.50;6264487;22;20012;-73
2023/12/31 04:16:51;;;;;;;10.77;3.88;;;;;;;2.90;91.54;100584.84;6267257;23;20055;-72
2023/12/31 04:19:18;;;;;;;14.35;4.20;;;;;;;2.89;91.79;100577.75;6268438;23;20135;-71
2023/12/31 04:21:44;;;;;;;13.55;4.25;;;;;;;2.88;91.77;100576.03;6269236;22;20024;-71
2023/12/31 04:24:11;;;;;;;17.48;4.32;;;;;;;2.88;91.90;100568.00;6268137;23;20030;-71
2023/12/31 04:26:42;;;;;;;24.38;4.55;;;;;;;2.87;91.81;100568.94;6267232;23;20055;-72
2023/12/31 04:29:13;;;;;;;18.40;4.50;;;;;;;2.85;92.00;100559.28;6267885;23;20095;-72
2023/12/31 04:31:47;;;;;;;15.32;4.45;;;;;;;2.84;91.73;100547.72;6266729;23;20382;-72
2023/12/31 04:34:19;;;;;;;16.35;4.45;;;;;;;2.83;91.99;100555.84;6266801;23;20016;-72
2023/12/31 04:36:46;;;;;;;10.25;4.32;;;;;;;2.83;91.92;100556.69;6265749;23;20034;-72
2023/12/31 04:39:13;;;;;;;18.20;4.40;;;;;;;2.85;92.03;100552.13;6265876;23;20456;-72
2023/12/31 04:41:40;;;;;;;14.55;4.13;;;;;;;2.87;91.71;100547.53;6267283;23;20042;-72
2023/12/31 04:44:07;;;;;;;21.42;4.68;;;;;;;2.86;91.77;100552.97;6266769;23;20044;-73
2023/12/31 04:46:34;;;;;;;15.30;4.97;;;;;;;2.86;91.87;100551.16;6265569;23;20020;-72
2023/12/31 04:49:00;;;;;;;12.63;4.35;;;;;;;2.86;91.96;100553.84;6265472;23;20035;-73
2023/12/31 04:51:29;;;;;;;15.15;4.85;;;;;;;2.90;91.64;100547.31;6265517;23;20087;-72
2023/12/31 04:53:57;;;;;;;14.80;4.72;;;;;;;2.96;91.83;100533.56;6266161;23;20047;-72
2023/12/31 04:56:25;;;;;;;16.48;4.40;;;;;;;2.99;91.40;100530.72;6265782;23;20074;-72
2023/12/31 04:58:53;;;;;;;17.25;4.20;;;;;;;3.00;91.16;100532.47;6266988;23;20020;-72
2023/12/31 05:01:20;;;;;;;15.73;4.25;;;;;;;2.96;91.20;100525.53;6267630;23;20059;-73
2023/12/31 05:03:47;;;;;;;21.50;4.97;;;;;;;2.98;91.49;100518.25;6266220;23;20024;-72
2023/12/31 05:06:14;;;;;;;12.18;4.28;;;;;;;3.06;91.19;100517.81;6266409;22;20051;-72
2023/12/31 05:08:44;;;;;;;14.32;4.28;;;;;;;3.02;91.09;100515.44;6266021;23;20083;-72
2023/12/31 05:11:12;;;;;;;17.95;4.38;;;;;;;3.04;90.99;100519.72;6266766;23;20028;-72
2023/12/31 05:13:39;;;;;;;11.02;3.80;;;;;;;3.05;90.98;100521.44;6283282;22;20034;-72
2023/12/31 05:16:07;;;;;;;13.00;4.57;;;;;;;3.05;90.77;100523.28;6296997;22;20015;-72
2023/12/31 05:18:34;;;;;;;11.05;3.88;;;;;;;3.04;91.14;100521.53;6296646;22;20078;-72
2023/12/31 05:21:01;;;;;;;12.82;4.05;;;;;;;3.06;90.72;100516.94;6296812;22;20051;-72
2023/12/31 05:23:30;;;;;;;19.17;4.30;;;;;;;3.06;91.05;100514.28;6297327;22;20070;-72
2023/12/31 05:25:56;;;;;;;15.50;5.20;;;;;;;3.09;90.83;100506.03;6295745;22;20045;-73
2023/12/31 05:28:23;;;;;;;9.65;4.05;;;;;;;3.15;90.44;100503.00;6296125;22;20079;-72
2023/12/31 05:30:49;;;;;;;13.90;4.38;;;;;;;3.14;90.55;100502.13;6297583;22;20019;-72
2023/12/31 05:33:16;;;;;;;14.38;4.60;;;;;;;3.23;90.00;100498.03;6296322;22;20462;-72
2023/12/31 05:35:44;;;;;;;18.55;4.53;;;;;;;3.33;88.90;100495.66;6269656;22;20026;-72
2023/12/31 05:38:11;;;;;;;16.65;4.55;;;;;;;3.28;89.45;100498.59;6270458;22;20023;-72
2023/12/31 05:40:37;;;;;;;13.02;4.18;;;;;;;3.36;89.55;100495.44;6296104;22;20027;-72
2023/12/31 05:43:04;;;;;;;16.73;4.88;;;;;;;3.15;89.90;100503.00;6296619;22;20024;-72
2023/12/31 05:45:31;;;;;;;18.25;4.32;;;;;;;3.15;89.73;100503.00;6296905;22;20055;-72
2023/12/31 05:47:57;;;;;;;11.05;4.82;;;;;;;3.01;90.34;100495.81;6297942;22;20024;-72
2023/12/31 05:50:24;;;;;;;13.98;4.25;;;;;;;3.09;90.15;100487.28;6297501;22;20051;-72
2023/12/31 05:52:52;;;;;;;9.73;3.58;;;;;;;3.33;89.60;100491.16;6296201;22;20132;-72
2023/12/31 05:55:19;;;;;;;10.85;3.60;;;;;;;3.64;88.17;100473.13;6295681;22;20020;-72
2023/12/31 05:57:45;;;;;;;12.65;3.97;;;;;;;3.66;87.70;100464.03;6294397;22;20031;-72
2023/12/31 06:00:13;;;;;;;15.15;4.60;;;;;;;3.82;87.14;100466.59;6295584;22;20063;-72
2023/12/31 06:02:41;;;;;;;11.15;3.80;;;;;;;3.25;88.17;100469.31;6296424;22;20051;-72
2023/12/31 06:05:08;;;;;;;15.27;4.05;;;;;;;3.15;89.48;100473.50;6296191;22;20335;-72
2023/12/31 06:07:34;;;;;;;12.73;4.40;;;;;;;3.31;89.28;100466.25;6296741;22;20085;-72
2023/12/31 06:10:01;;;;;;;9.77;3.67;;;;;;;3.26;88.79;100466.53;6296669;22;20041;-73
2023/12/31 06:12:28;;;;;;;10.45;3.67;;;;;;;3.18;89.39;100467.97;6270317;22;20283;-72
2023/12/31 06:14:54;;;;;;;12.20;4.07;;;;;;;3.05;89.79;100465.19;6298132;22;20093;-72
2023/12/31 06:17:21;;;;;;;15.52;4.32;;;;;;;3.14;89.89;100463.75;6297895;22;20024;-72
2023/12/31 06:19:47;;;;;;;18.85;4.72;;;;;;;3.12;89.58;100465.69;6298489;22;20007;-73
2023/12/31 06:22:14;;;;;;;17.27;4.05;;;;;;;3.07;90.10;100468.63;6297665;22;20026;-72
2023/12/31 06:24:40;;;;;;;18.45;4.80;;;;;;;2.98;89.88;100469.19;6298588;22;20035;-72
2023/12/31 06:27:07;;;;;;;13.75;4.32;;;;;;;3.03;90.31;100477.81;6297577;22;20027;-72
2023/12/31 06:29:33;;;;;;;14.48;4.82;;;;;;;2.91;90.68;100473.22;6298356;22;20016;-72
2023/12/31 06:32:00;;;;;;;11.10;4.63;;;;;;;2.99;90.43;100471.75;6297130;22;20028;-72
2023/12/31 06:34:26;;;;;;;13.30;4.47;;;;;;;3.03;90.72;100471.59;6297473;22;20024;-72
2023/12/31 06:36:53;;;;;;;9.88;4.60;;;;;;;3.02;90.33;100460.03;6297192;22;20032;-73
2023/12/31 06:39:20;;;;;;;15.50;4.93;;;;;;;3.18;90.30;100458.09;6296031;22;20063;-72
2023/12/31 06:41:46;;;;;;;11.98;4.40;;;;;;;3.12;90.12;100455.81;6296049;22;20023;-72
2023/12/31 06:44:13;;;;;;;14.05;4.30;;;;;;;3.17;89.86;100464.41;6296392;22;20027;-72
2023/12/31 06:46:40;;;;;;;17.50;3.90;;;;;;;3.08;89.98;100459.63;6297138;22;20023;-72
2023/12/31 06:49:06;;;;;;;12.10;3.83;;;;;;;3.11;90.14;100458.59;6296221;22;20027;-73
2023/12/31 06:51:33;;;;;;;12.02;3.92;;;;;;;3.23;89.89;100457.81;6295900;22;20027;-72
2023/12/31 06:54:00;;;;;;;11.45;3.60;;;;;;;3.14;89.74;100458.41;6297618;22;20055;-72
2023/12/31 06:56:26;;;;;;;13.45;3.70;;;;;;;3.13;89.65;100456.69;6297215;22;20016;-72
2023/12/31 06:58:53;;;;;;;13.07;4.18;;;;;;;3.17;89.62;100453.69;6297140;22;20059;-72
2023/12/31 07:01:19;;;;;;;12.32;4.43;;;;;;;3.19;89.51;100450.94;6297922;22;20019;-72
2023/12/31 07:03:46;;;;;;;11.30;4.00;;;;;;;3.20;89.32;100453.53;6297449;22;20023;-72
2023/12/31 07:06:13;;;;;;;20.13;4.15;;;;;;;3.17;89.68;100444.78;6272156;22;20028;-72
2023/12/31 07:08:39;;;;;;;8.65;3.42;;;;;;;3.20;89.68;100441.94;6298121;22;20024;-72
2023/12/31 07:11:06;;;;;;;11.45;4.22;;;;;;;3.22;89.57;100435.53;6297436;22;20043;-73
2023/12/31 07:13:36;;;;;;;12.75;4.05;;;;;;;3.29;88.92;100436.00;6281534;22;20016;-72
2023/12/31 07:16:03;;;;;;;11.80;3.45;;;;;;;3.27;89.22;100433.41;6266871;23;20035;-72
2023/12/31 07:18:29;;;;;;;13.43;3.83;;;;;;;3.37;88.88;100432.81;6266507;23;20031;-72
2023/12/31 07:20:57;;;;;;;10.50;4.20;;;;;;;3.45;88.31;100419.81;6266015;23;20028;-72
2023/12/31 07:23:24;;;;;;;15.23;4.22;;;;;;;3.52;87.94;100424.69;6265227;23;20024;-72
2023/12/31 07:25:50;;;;;;;9.90;3.88;;;;;;;3.39;88.49;100426.44;6264123;23;20044;-72
2023/12/31 07:28:17;;;;;;;14.80;4.38;;;;;;;3.43;88.22;100422.59;6264077;23;20138;-73
2023/12/31 07:30:44;;;;;;;12.30;3.47;;;;;;;3.38;88.17;100414.00;6263814;23;20024;-72
2023/12/31 07:33:12;;;;;;;11.43;3.53;;;;;;;3.54;88.29;100412.03;6259785;23;20031;-72
2023/12/31 07:35:38;;;;;;;10.57;3.75;;;;;;;3.59;88.10;100409.06;6267670;23;20091;-72
2023/12/31 07:38:07;;;;;;;9.77;3.60;;;;;;;3.69;87.65;100406.66;6268492;23;20015;-72
2023/12/31 07:40:34;;;;;;;10.57;3.38;;;;;;;3.88;86.60;100399.13;6268566;22;20039;-72
2023/12/31 07:43:02;;;;;;;8.02;3.70;;;;;;;3.77;86.38;100409.69;6268517;23;20024;-72
2023/12/31 07:45:29;;;;;;;14.93;3.60;;;;;;;3.79;86.58;100410.47;6267954;23;20065;-72
2023/12/31 07:47:56;;;;;;;12.80;3.70;;;;;;;3.56;87.08;100404.78;6268425;22;20050;-72
2023/12/31 07:50:23;;;;;;;11.55;2.90;;;;;;;3.66;87.09;100410.41;6268753;22;20035;-72
2023/12/31 07:52:50;;;;;;;11.27;3.47;;;;;;;3.63;86.74;100417.75;6269862;22;20015;-72
2023/12/31 07:55:18;;;;;;;12.73;4.07;;;;;;;3.63;86.83;100424.00;6269729;23;20068;-72
2023/12/31 07:57:44;;;;;;;8.27;3.47;;;;;;;3.60;86.88;100423.34;6270861;22;20055;-72
2023/12/31 08:00:12;;;;;;;11.80;3.28;;;;;;;3.54;87.10;100412.03;6270588;22;20027;-72
2023/12/31 08:02:39;;;;;;;12.13;3.40;;;;;;;3.65;87.06;100405.97;6270529;23;20012;-72
2023/12/31 08:05:05;;;;;;;9.60;3.28;;;;;;;3.77;86.53;100401.66;6269261;23;20012;-72
2023/12/31 08:07:33;;;;;;;12.32;3.55;;;;;;;3.76;86.54;100402.63;6268843;22;20031;-72
2023/12/31 08:09:59;;;;;;;8.18;2.47;;;;;;;3.75;85.85;100407.13;6270230;23;20075;-72
2023/12/31 08:12:26;;;;;;;16.00;3.47;;;;;;;3.80;85.56;100396.06;6269987;22;20040;-72
2023/12/31 08:14:52;;;;;;;9.52;3.17;;;;;;;3.74;86.00;100388.41;6270264;23;20047;-72
2023/12/31 08:17:19;;;;;;;13.52;2.78;;;;;;;3.89;85.91;100381.19;6270237;23;20023;-72
2023/12/31 08:19:46;;;;;;;9.43;2.88;;;;;;;3.93;85.52;100388.94;6269344;23;20024;-73
2023/12/31 08:22:12;;;;;;;7.15;2.97;;;;;;;4.09;84.66;100386.97;6269023;23;20051;-72
2023/12/31 08:24:39;;;;;;;14.77;3.40;;;;;;;4.26;84.53;100385.84;6269985;23;20063;-72
2023/12/31 08:27:05;;;;;;;9.00;2.70;;;;;;;4.26;83.76;100382.28;6268224;23;20028;-72
2023/12/31 08:29:32;;;;;;;10.73;3.30;;;;;;;4.11;84.01;100386.84;6269584;23;20027;-72
2023/12/31 08:31:59;;;;;;;7.13;2.88;;;;;;;4.11;84.15;100393.06;6268317;23;20028;-72
2023/12/31 08:34:25;;;;;;;8.02;3.10;;;;;;;4.23;83.50;100386.06;6268223;23;20059;-72
2023/12/31 08:36:52;;;;;;;7.03;2.88;;;;;;;4.35;83.41;100381.66;6269740;23;20058;-71
2023/12/31 08:39:20;;;;;;;8.77;2.58;;;;;;;4.51;82.24;100385.03;6268279;23;20035;-72
2023/12/31 08:41:46;;;;;;;9.35;2.67;;;;;;;4.46;82.47;100376.41;6268708;23;20024;-72
2023/12/31 08:44:13;;;;;;;4.80;2.40;;;;;;;4.64;81.70;100379.66;6268506;23;20062;-72
2023/12/31 08:46:40;;;;;;;11.45;3.13;;;;;;;4.54;82.15;100371.38;6267647;23;20058;-72
2023/12/31 08:49:07;;;;;;;8.10;2.58;;;;;;;4.48;82.62;100373.63;6268241;22;20039;-72
2023/12/31 08:51:34;;;;;;;10.63;2.88;;;;;;;4.60;82.67;100373.66;6267263;23;20047;-73
2023/12/31 08:54:01;;;;;;;9.75;3.00;;;;;;;4.46;82.82;100375.56;6268301;23;20028;-72
2023/12/31 08:56:28;;;;;;;9.13;3.58;;;;;;;4.36;82.87;100378.00;6211572;22;20004;-72
2023/12/31 08:58:54;;;;;;;9.45;2.88;;;;;;;4.42;82.49;100385.66;6300886;22;20015;-73
2023/12/31 09:01:21;;;;;;;9.73;3.58;;;;;;;4.46;82.66;100380.94;6300260;22;20008;-72
2023/12/31 09:03:48;;;;;;;8.43;3.20;;;;;;;4.47;82.36;100380.81;6300458;22;20012;-72
2023/12/31 09:06:14;;;;;;;16.00;3.60;;;;;;;4.46;82.34;100376.41;6300725;22;20028;-72
2023/12/31 09:08:41;;;;;;;9.68;2.60;;;;;;;4.50;82.37;100364.53;6299893;22;20008;-72
2023/12/31 09:11:07;;;;;;;7.18;3.42;;;;;;;4.55;81.93;100365.03;6300446;22;20023;-72
2023/12/31 09:13:34;;;;;;;5.45;2.70;;;;;;;4.58;81.76;100372.88;6299596;22;20060;-72
2023/12/31 09:16:01;;;;;;;11.30;3.60;;;;;;;4.62;81.74;100360.97;6300305;22;20030;-71
2023/12/31 09:18:28;;;;;;;6.07;2.60;;;;;;;4.66;81.60;100367.84;6300802;22;20015;-73
2023/12/31 09:20:55;;;;;;;4.32;2.40;;;;;;;4.71;81.15;100364.84;6300023;22;20011;-71
2023/12/31 09:23:21;;;;;;;8.77;3.13;;;;;;;4.73;81.44;100366.47;6300678;22;20027;-72
2023/12/31 09:25:48;;;;;;;10.73;3.42;;;;;;;4.81;81.11;100359.69;6300128;22;20016;-71
2023/12/31 09:28:15;;;;;;;10.13;3.80;;;;;;;4.83;81.14;100355.06;6300145;22;20095;-73
2023/12/31 09:36:05;;;;;;;11.35;3.85;;;;;;;4.72;81.42;100359.38;6151440;22;20110;-71
2023/12/31 09:38:32;;;;;;;12.13;3.05;;;;;;;4.76;81.31;100351.09;6300113;22;20062;-71
2023/12/31 09:40:58;;;;;;;16.25;3.78;;;;;;;4.77;81.22;100348.31;6275232;22;20008;-71
2023/12/31 09:43:25;;;;;;;11.20;4.20;;;;;;;4.79;81.59;100346.38;6299860;22;20008;-71
2023/12/31 10:04:47;;;;;;;10.77;3.63;;;;;;;5.04;80.43;100297.13;6212012;22;20011;-72
2023/12/31 10:07:14;;;;;;;9.27;3.00;;;;;;;5.06;80.17;100289.84;6298790;22;20071;-73
2023/12/31 10:09:42;;;;;;;9.20;3.45;;;;;;;5.16;79.64;100273.91;6300490;22;20075;-73
2023/12/31 10:12:10;;;;;;;5.90;3.08;;;;;;;5.12;79.30;100286.69;6274132;22;20038;-74
2023/12/31 10:17:19;;;;;;;6.80;3.20;;;;;;;5.34;79.01;100260.94;6223063;22;19915;-72
2023/12/31 10:19:46;;;;;;;8.70;3.95;;;;;;;5.34;79.28;100252.88;6300302;22;20059;-73
2023/12/31 10:22:16;;;;;;;9.93;3.47;;;;;;;5.36;78.98;100253.59;6299311;22;20035;-72
2023/12/31 10:24:42;;;;;;;7.90;3.38;;;;;;;5.33;78.97;100245.75;6298892;22;20007;-72
2023/12/31 10:27:11;;;;;;;11.43;3.38;;;;;;;5.34;78.82;100240.28;6299378;22;20042;-72
2023/12/31 10:29:38;;;;;;;11.85;5.15;;;;;;;5.35;78.83;100233.06;6273957;22;20006;-72
2023/12/31 10:32:06;;;;;;;12.13;5.25;;;;;;;5.37;79.23;100223.03;6299192;22;20071;-72
2023/12/31 10:34:32;;;;;;;12.68;6.07;;;;;;;5.38;78.87;100208.63;6299392;22;20061;-72
2023/12/31 10:37:05;;;;;;;7.78;3.92;;;;;;;5.34;79.04;100202.63;6299286;22;20056;-72
2023/12/31 10:39:34;;;;;;;11.38;3.17;;;;;;;5.31;79.54;100212.72;6299317;22;20075;-72
2023/12/31 10:42:04;;;;;;;11.07;3.90;;;;;;;5.35;79.44;100193.59;6297759;22;20031;-72
2023/12/31 10:44:38;;;;;;;10.10;3.97;;;;;;;5.45;78.97;100185.69;6298232;22;20113;-72
2023/12/31 10:47:06;;;;;;;7.75;4.10;;;;;;;5.40;79.28;100179.78;6275491;22;20019;-73
2023/12/31 10:49:34;;;;;;;9.43;2.80;;;;;;;5.54;78.41;100176.91;6271509;22;20049;-76
2023/12/31 10:52:04;;;;;;;5.50;2.50;;;;;;;5.56;78.64;100177.63;6270871;22;20106;-75
2023/12/31 10:54:34;;;;;;;10.50;3.42;;;;;;;5.53;78.63;100175.19;6271943;22;20111;-77
2023/12/31 10:57:01;;;;;;;7.85;2.97;;;;;;;5.52;78.41;100162.72;6271024;22;20082;-77
2023/12/31 10:59:30;;;;;;;9.10;2.60;;;;;;;5.53;78.25;100159.91;6272097;22;20450;-76
2023/12/31 11:01:57;;;;;;;12.13;3.60;;;;;;;5.58;78.44;100156.84;6272340;22;20030;-76
2023/12/31 11:04:26;;;;;;;6.07;2.75;;;;;;;5.64;78.06;100155.53;6273081;22;20096;-75
2023/12/31 11:06:55;;;;;;;6.70;2.42;;;;;;;5.69;77.95;100170.34;6272509;22;20054;-74
2023/12/31 11:09:22;;;;;;;9.07;3.60;;;;;;;5.70;77.74;100165.81;6272476;22;20008;-77
2023/12/31 11:11:49;;;;;;;9.52;3.25;;;;;;;5.74;77.82;100157.41;6271941;22;20011;-76
2023/12/31 11:14:24;;;;;;;7.22;2.80;;;;;;;5.77;77.63;100141.00;6271093;22;20364;-76
2023/12/31 11:17:11;;;;;;;8.10;2.90;;;;;;;5.84;76.98;100130.63;6271528;22;20389;-74
2023/12/31 11:20:16;;;;;;;9.85;3.08;;;;;;;5.89;77.00;100130.25;6271334;22;20024;-76
2023/12/31 11:22:49;;;;;;;7.78;3.33;;;;;;;5.90;76.88;100123.91;6271800;22;20397;-74
2023/12/31 11:25:20;;;;;;;10.77;2.78;;;;;;;5.86;76.86;100129.53;6271810;22;20095;-74
2023/12/31 11:27:53;;;;;;;8.15;3.40;;;;;;;5.95;76.97;100138.72;6273377;22;20028;-76
2023/12/31 11:30:47;;;;;;;6.40;2.83;;;;;;;6.01;76.23;100140.94;6276621;22;20030;-73
2023/12/31 11:33:24;;;;;;;6.43;2.70;;;;;;;6.02;75.78;100139.09;6276471;22;20349;-73
2023/12/31 11:35:52;;;;;;;9.15;2.80;;;;;;;6.07;75.80;100139.56;6276734;22;20020;-73
2023/12/31 11:38:20;;;;;;;7.43;2.75;;;;;;;6.02;75.55;100134.56;6275357;22;20087;-69
2023/12/31 11:40:48;;;;;;;6.63;3.00;;;;;;;6.02;75.94;100129.19;6273540;22;20381;-69
2023/12/31 11:43:16;;;;;;;5.30;2.67;;;;;;;6.12;75.61;100129.31;6273603;22;20027;-69
2023/12/31 11:45:45;;;;;;;6.65;2.78;;;;;;;6.07;75.61;100129.69;6273215;22;20038;-69
2023/12/31 11:48:24;;;;;;;7.30;2.75;;;;;;;6.08;75.51;100123.31;6273112;22;20358;-69
2023/12/31 11:50:54;;;;;;;4.25;2.40;;;;;;;6.12;75.63;100105.09;6273655;22;20028;-69
2023/12/31 11:53:22;;;;;;;11.82;2.80;;;;;;;6.12;75.60;100105.09;6247338;22;20020;-69
2023/12/31 11:55:53;;;;;;;9.05;2.80;;;;;;;6.13;75.39;100094.19;6273721;22;20092;-68
2023/12/31 11:58:23;;;;;;;6.90;2.13;;;;;;;6.14;75.69;100095.03;6246522;22;20015;-68